Terminal Aerodrome Forecast
Issued by NWS Shreveport, LA

Home | Current Version | Previous Version | Text Only | Print | Product List | Glossary On
Versions: 1 2 3 4 5 6 7 8 9 10 11 12 13
000
FTUS44 KSHV 281100
TAFSHV
TAF
KSHV 281125Z 2812/2912 25005KT P6SM VCTS SCT050CB SCT120 BKN250
      TEMPO 2812/2816 34007KT 5SM -TSRA BR BKN050CB
     FM281600 35008KT P6SM SCT050 SCT100 BKN250
     FM290000 34006KT P6SM SCT050 SCT250
     FM290600 02004KT P6SM SCT250=

USA.gov is the U.S. government's official web portal to all federal, state and local government web resources and services.